createdAt,value
2023-03-22T00:01:28.218Z,39.90
2023-03-22T00:03:55.564Z,41.70
2023-03-22T00:06:26.830Z,42.30
2023-03-22T00:08:54.118Z,43.20
2023-03-22T00:11:26.224Z,41.70
2023-03-22T00:13:54.331Z,40.60
2023-03-22T00:16:21.907Z,41.70
2023-03-22T00:18:59.127Z,39.60
2023-03-22T00:21:26.316Z,39.80
2023-03-22T00:23:53.260Z,40.80
2023-03-22T00:26:20.185Z,38.50
2023-03-22T00:28:47.274Z,38.60
2023-03-22T00:31:14.830Z,40.90
2023-03-22T00:33:43.229Z,40.80
2023-03-22T00:36:11.753Z,38.70
2023-03-22T00:38:43.461Z,35.40
2023-03-22T00:41:13.764Z,36.40
2023-03-22T00:43:41.710Z,36.10
2023-03-22T00:46:09.905Z,37.20
2023-03-22T00:48:37.006Z,37.80
2023-03-22T00:51:04.999Z,35.50
2023-03-22T00:53:33.121Z,34.70
2023-03-22T00:56:00.409Z,35.70
2023-03-22T00:58:28.186Z,35.30
2023-03-22T01:00:55.055Z,35.10
2023-03-22T01:03:24.103Z,38.30
2023-03-22T01:05:55.881Z,35.60
2023-03-22T01:08:23.642Z,35.80
2023-03-22T01:10:51.601Z,36.20
2023-03-22T01:13:18.731Z,37.70
2023-03-22T01:15:49.139Z,33.90
2023-03-22T01:18:16.390Z,33.30
2023-03-22T01:20:43.466Z,34.70
2023-03-22T01:23:10.481Z,37.10
2023-03-22T01:25:37.674Z,35.80
2023-03-22T01:28:06.288Z,35.60
2023-03-22T01:30:33.217Z,38.10
2023-03-22T01:33:00.906Z,38.60
2023-03-22T01:35:28.036Z,39.70
2023-03-22T01:37:55.409Z,40.80
2023-03-22T01:40:22.435Z,40.90
2023-03-22T01:42:49.792Z,41.70
2023-03-22T01:45:34.632Z,39.40
2023-03-22T01:48:07.953Z,42.20
2023-03-22T01:50:39.143Z,41.80
2023-03-22T01:53:08.239Z,41.40
2023-03-22T01:55:37.454Z,40.60
2023-03-22T01:58:17.610Z,40.40
2023-03-22T02:00:51.348Z,41.90
2023-03-22T02:04:03.323Z,41.30
2023-03-22T02:06:31.854Z,42.10
2023-03-22T02:09:10.590Z,40.10
2023-03-22T02:11:46.609Z,40.10
2023-03-22T02:14:45.711Z,43.40
2023-03-22T02:17:59.297Z,41.60
2023-03-22T02:20:47.799Z,41.60
2023-03-22T02:23:32.730Z,43.10
2023-03-22T02:26:41.616Z,40.10
2023-03-22T02:29:38.614Z,43.80
2023-03-22T02:32:36.760Z,41.40
2023-03-22T02:35:25.735Z,40.20
2023-03-22T02:38:12.083Z,42.50
2023-03-22T02:40:57.538Z,40.90
2023-03-22T02:43:38.942Z,42.00
2023-03-22T02:46:09.644Z,43.50
2023-03-22T02:49:03.777Z,40.20
2023-03-22T02:51:58.772Z,41.70
2023-03-22T02:54:35.109Z,39.50
2023-03-22T02:57:13.376Z,41.00
2023-03-22T02:59:42.957Z,42.60
2023-03-22T03:02:16.852Z,43.20
2023-03-22T03:04:49.381Z,40.70
2023-03-22T03:07:22.194Z,40.70
2023-03-22T03:09:51.188Z,42.30
2023-03-22T03:12:22.793Z,42.10
2023-03-22T03:14:51.641Z,42.40
2023-03-22T03:17:44.311Z,41.60
2023-03-22T03:20:39.542Z,38.60
2023-03-22T03:23:25.160Z,42.00
2023-03-22T03:26:05.834Z,46.30
2023-03-22T03:28:37.859Z,42.20
2023-03-22T03:31:09.182Z,39.90
2023-03-22T03:33:44.128Z,42.00
2023-03-22T03:36:16.787Z,41.80
2023-03-22T03:38:49.171Z,41.00
2023-03-22T03:41:21.220Z,41.90
2023-03-22T03:43:51.007Z,40.60
2023-03-22T03:46:18.407Z,40.30
2023-03-22T03:48:49.627Z,38.70
2023-03-22T03:51:17.619Z,39.40
2023-03-22T03:53:44.833Z,38.50
2023-03-22T03:56:11.924Z,41.90
2023-03-22T04:01:11.636Z,39.60
2023-03-22T04:04:09.094Z,42.90
2023-03-22T04:06:49.069Z,41.00
2023-03-22T04:09:19.637Z,42.70
2023-03-22T04:11:55.241Z,43.20
2023-03-22T04:14:24.129Z,43.30
2023-03-22T04:16:51.631Z,41.70
2023-03-22T04:19:22.359Z,41.10
2023-03-22T04:21:52.569Z,42.50
2023-03-22T04:24:21.292Z,43.90
2023-03-22T04:26:51.906Z,46.30
2023-03-22T04:29:22.484Z,44.70
2023-03-22T04:31:53.406Z,44.60
2023-03-22T04:34:29.313Z,45.80
2023-03-22T04:37:07.562Z,44.30
2023-03-22T04:39:44.082Z,46.90
2023-03-22T04:42:23.914Z,47.20
2023-03-22T04:44:58.116Z,45.80
2023-03-22T04:47:25.695Z,47.80
2023-03-22T04:49:53.197Z,45.80
2023-03-22T04:52:20.747Z,48.20
2023-03-22T04:54:52.164Z,48.40
2023-03-22T04:57:19.418Z,48.30
2023-03-22T04:59:47.642Z,46.40
2023-03-22T05:02:16.428Z,49.40
2023-03-22T05:04:43.936Z,44.90
2023-03-22T05:07:22.625Z,43.20
2023-03-22T05:09:53.511Z,44.60
2023-03-22T05:12:20.596Z,46.10
2023-03-22T05:15:00.611Z,46.90
2023-03-22T05:17:31.518Z,49.00
2023-03-22T05:20:07.757Z,48.70
2023-03-22T05:22:37.521Z,45.90
2023-03-22T05:25:05.952Z,48.20
2023-03-22T05:27:34.539Z,48.60
2023-03-22T05:30:21.181Z,46.80
2023-03-22T05:33:03.252Z,44.20
2023-03-22T05:35:34.436Z,47.40
2023-03-22T05:38:02.686Z,48.50
2023-03-22T05:40:32.768Z,48.40
2023-03-22T05:43:00.606Z,45.00
2023-03-22T05:45:36.496Z,46.70
2023-03-22T05:48:20.423Z,46.50
2023-03-22T05:50:47.572Z,45.80
2023-03-22T05:53:16.551Z,45.90
2023-03-22T05:56:01.796Z,46.20
2023-03-22T05:58:31.979Z,45.40
2023-03-22T06:01:11.665Z,43.70
2023-03-22T06:03:48.075Z,47.10
2023-03-22T06:06:24.314Z,43.20
2023-03-22T06:09:15.954Z,45.30
2023-03-22T06:11:50.913Z,45.70
2023-03-22T06:14:18.339Z,45.80
2023-03-22T06:17:08.231Z,45.90
2023-03-22T06:19:40.333Z,47.90
2023-03-22T06:22:08.354Z,46.90
2023-03-22T06:24:36.282Z,45.40
2023-03-22T06:27:06.811Z,46.90
2023-03-22T06:29:35.501Z,45.50
2023-03-22T06:32:03.703Z,46.30
2023-03-22T06:34:32.484Z,44.60
2023-03-22T06:37:00.382Z,44.30
2023-03-22T06:39:33.418Z,47.60
2023-03-22T06:42:00.639Z,46.70
2023-03-22T06:44:28.005Z,48.10
2023-03-22T06:47:15.669Z,48.00
2023-03-22T06:50:12.322Z,47.60
2023-03-22T06:53:01.376Z,47.50
2023-03-22T06:55:32.703Z,44.80
2023-03-22T06:58:01.873Z,45.60
2023-03-22T07:00:30.417Z,46.80
2023-03-22T07:02:58.776Z,43.70
2023-03-22T07:05:35.296Z,45.90
2023-03-22T07:08:02.466Z,43.30
2023-03-22T07:10:37.617Z,43.60
2023-03-22T07:13:06.023Z,43.80
2023-03-22T07:15:34.562Z,41.70
2023-03-22T07:18:15.167Z,41.10
2023-03-22T07:20:42.232Z,40.00
2023-03-22T07:23:10.370Z,38.20
2023-03-22T07:25:43.805Z,39.50
2023-03-22T07:28:23.824Z,39.20
2023-03-22T07:31:03.484Z,37.10
2023-03-22T07:33:34.944Z,36.00
2023-03-22T07:36:02.924Z,39.10
2023-03-22T07:38:30.429Z,37.60
2023-03-22T07:40:58.301Z,29.70
2023-03-22T07:43:30.033Z,33.50
2023-03-22T07:46:09.017Z,28.10
2023-03-22T07:48:58.002Z,22.90
2023-03-22T07:51:48.801Z,21.10
2023-03-22T07:54:32.210Z,15.40
2023-03-22T07:57:01.777Z,15.70
2023-03-22T07:59:30.786Z,13.50
2023-03-22T08:01:59.351Z,14.00
2023-03-22T08:04:31.521Z,14.00
2023-03-22T08:07:09.485Z,16.40
2023-03-22T08:09:38.826Z,21.10
2023-03-22T08:12:06.717Z,24.10
2023-03-22T08:14:36.822Z,23.40
2023-03-22T08:17:07.477Z,24.60
2023-03-22T11:34:46.727Z,16.10
2023-03-22T11:37:18.501Z,16.10
2023-03-22T11:40:00.274Z,15.70
2023-03-22T11:42:29.058Z,14.30
2023-03-22T11:44:57.447Z,14.60
2023-03-22T11:47:32.986Z,13.50
2023-03-22T11:50:05.181Z,14.30
2023-03-22T11:55:03.122Z,13.80
2023-03-22T11:57:34.900Z,14.70
2023-03-22T12:00:27.259Z,13.80
2023-03-22T12:03:04.886Z,15.90
2023-03-22T12:05:43.068Z,16.00
2023-03-22T12:08:27.351Z,16.50
2023-03-22T12:11:06.395Z,14.00
2023-03-22T12:13:50.223Z,16.10
2023-03-22T12:16:25.276Z,13.80
2023-03-22T12:19:26.152Z,13.70
2023-03-22T12:21:55.552Z,14.80
2023-03-22T12:24:33.314Z,14.50
2023-03-22T12:27:21.791Z,14.20
2023-03-22T12:30:18.358Z,15.10
2023-03-22T12:33:06.861Z,14.90
2023-03-22T12:35:42.573Z,19.40
2023-03-22T12:38:24.450Z,17.90
2023-03-22T12:40:56.187Z,15.50
2023-03-22T12:43:56.451Z,15.70
2023-03-22T12:46:32.396Z,15.70
2023-03-22T12:49:46.013Z,13.40
2023-03-22T12:52:21.355Z,14.60
2023-03-22T12:54:52.975Z,16.20
2023-03-22T12:57:21.404Z,15.60
2023-03-22T12:59:52.468Z,15.50
2023-03-22T13:02:30.501Z,15.40
2023-03-22T13:05:05.317Z,15.30
2023-03-22T13:07:49.692Z,14.50
2023-03-22T13:10:34.494Z,14.10
2023-03-22T13:13:23.652Z,13.90
2023-03-22T13:16:13.760Z,12.30
2023-03-22T13:18:45.442Z,13.20
2023-03-22T13:21:21.378Z,13.10
2023-03-22T13:24:06.182Z,13.90
2023-03-22T13:26:55.169Z,15.80
2023-03-22T13:29:42.133Z,15.30
2023-03-22T13:32:38.024Z,13.90
2023-03-22T13:35:22.096Z,14.20
2023-03-22T13:37:52.001Z,13.20
2023-03-22T13:40:35.184Z,12.60
2023-03-22T13:43:24.505Z,10.90
2023-03-22T13:46:06.458Z,10.10
2023-03-22T13:48:52.610Z,10.10
2023-03-22T13:51:27.992Z,9.80
2023-03-22T13:54:08.534Z,11.10
2023-03-22T13:56:56.561Z,10.90
2023-03-22T13:59:28.050Z,7.90
2023-03-22T14:01:59.742Z,7.70
2023-03-22T14:04:31.576Z,8.90
2023-03-22T14:07:07.282Z,9.20
2023-03-22T14:09:51.463Z,8.80
2023-03-22T14:12:31.209Z,8.70
2023-03-22T14:15:04.852Z,9.60
2023-03-22T14:17:58.376Z,10.00
2023-03-22T14:20:34.705Z,13.90
